createdAt,value
2023-03-16T00:00:48.704Z,101777.63
2023-03-16T00:01:50.243Z,101774.94
2023-03-16T00:02:51.741Z,101769.75
2023-03-16T00:03:53.252Z,101776.59
2023-03-16T00:04:55.024Z,101778.25
2023-03-16T00:05:56.603Z,101779.06
2023-03-16T00:06:58.575Z,101780.69
2023-03-16T00:08:00.006Z,101784.97
2023-03-16T00:09:01.448Z,101789.16
2023-03-16T00:10:03.622Z,101786.50
2023-03-16T00:11:05.329Z,101790.00
2023-03-16T00:12:15.822Z,101786.47
2023-03-16T00:13:18.386Z,101784.72
2023-03-16T00:14:22.706Z,101790.69
2023-03-16T00:15:24.151Z,101785.41
2023-03-16T00:16:25.660Z,101790.47
2023-03-16T00:17:27.417Z,101797.25
2023-03-16T00:18:40.082Z,101791.19
2023-03-16T00:19:46.818Z,101791.09
2023-03-16T00:20:58.108Z,101794.50
2023-03-16T00:21:59.546Z,101791.88
2023-03-16T00:23:05.776Z,101793.53
2023-03-16T00:24:07.326Z,101796.06
2023-03-16T00:25:12.333Z,101795.19
2023-03-16T00:26:13.787Z,101794.22
2023-03-16T00:27:15.638Z,101791.59
2023-03-16T00:28:17.204Z,101788.97
2023-03-16T00:29:18.628Z,101789.78
2023-03-16T00:30:20.068Z,101794.91
2023-03-16T00:31:24.928Z,101794.00
2023-03-16T00:32:28.560Z,101787.94
2023-03-16T00:33:30.279Z,101793.94
2023-03-16T00:34:34.626Z,101786.16
2023-03-16T00:35:36.045Z,101796.44
2023-03-16T00:36:38.277Z,101794.69
2023-03-16T00:37:40.015Z,101798.91
2023-03-16T00:38:49.089Z,101791.22
2023-03-16T00:39:51.438Z,101792.84
2023-03-16T00:40:53.404Z,101791.97
2023-03-16T00:41:58.455Z,101787.63
2023-03-16T00:43:02.120Z,101789.34
2023-03-16T00:44:04.254Z,101795.28
2023-03-16T00:45:06.004Z,101795.25
2023-03-16T00:46:10.348Z,101796.03
2023-03-16T00:47:14.843Z,101790.03
2023-03-16T00:48:21.215Z,101798.50
2023-03-16T00:49:23.115Z,101793.34
2023-03-16T00:50:24.613Z,101793.28
2023-03-16T00:51:26.144Z,101798.38
2023-03-16T00:52:28.365Z,101790.56
2023-03-16T00:53:31.242Z,101792.25
2023-03-16T00:54:33.071Z,101798.22
2023-03-16T00:55:34.623Z,101801.63
2023-03-16T00:56:36.012Z,101802.44
2023-03-16T00:57:42.230Z,101803.22
2023-03-16T00:58:43.849Z,101803.16
2023-03-16T00:59:48.996Z,101793.69
2023-03-16T01:00:54.082Z,101804.81
2023-03-16T01:01:55.764Z,101797.91
2023-03-16T01:02:58.654Z,101803.03
2023-03-16T01:04:00.209Z,101800.47
2023-03-16T01:05:01.932Z,101800.47
2023-03-16T01:06:15.158Z,101802.97
2023-03-16T01:07:16.723Z,101796.94
2023-03-16T01:08:18.216Z,101801.28
2023-03-16T01:09:20.500Z,101801.22
2023-03-16T01:10:21.913Z,101807.22
2023-03-16T01:11:23.695Z,101802.81
2023-03-16T01:12:25.388Z,101805.41
2023-03-16T01:13:26.805Z,101800.25
2023-03-16T01:14:28.590Z,101795.03
2023-03-16T01:15:30.799Z,101793.31
2023-03-16T01:16:33.765Z,101802.75
2023-03-16T01:17:35.286Z,101798.44
2023-03-16T01:18:36.909Z,101803.59
2023-03-16T01:19:41.466Z,101794.97
2023-03-16T01:20:50.489Z,101796.69
2023-03-16T01:21:52.289Z,101792.34
2023-03-16T01:22:54.904Z,101794.00
2023-03-16T01:23:56.344Z,101803.44
2023-03-16T01:24:58.374Z,101799.13
2023-03-16T01:25:59.889Z,101793.03
2023-03-16T01:27:01.913Z,101790.44
2023-03-16T01:28:05.835Z,101792.09
2023-03-16T01:29:07.608Z,101790.31
2023-03-16T01:30:12.330Z,101797.16
2023-03-16T01:31:14.466Z,101789.34
2023-03-16T01:32:16.064Z,101787.63
2023-03-16T01:33:17.498Z,101783.28
2023-03-16T01:34:18.928Z,101792.72
2023-03-16T01:35:21.825Z,101788.38
2023-03-16T01:36:24.072Z,101787.50
2023-03-16T01:37:31.911Z,101789.16
2023-03-16T01:38:36.624Z,101783.16
2023-03-16T01:39:38.067Z,101782.25
2023-03-16T01:40:40.845Z,101785.72
2023-03-16T01:41:45.693Z,101781.41
2023-03-16T01:42:48.514Z,101783.03
2023-03-16T01:43:53.760Z,101782.94
2023-03-16T01:44:56.565Z,101782.00
2023-03-16T01:46:09.263Z,101784.50
2023-03-16T01:47:14.561Z,101787.88
2023-03-16T01:48:16.231Z,101790.38
2023-03-16T01:49:30.082Z,101789.47
2023-03-16T01:50:31.656Z,101797.06
2023-03-16T01:51:36.155Z,101791.94
2023-03-16T01:52:40.102Z,101789.28
2023-03-16T01:53:44.643Z,101797.00
2023-03-16T01:54:48.512Z,101790.13
2023-03-16T01:55:55.236Z,101784.94
2023-03-16T01:56:59.624Z,101784.94
2023-03-16T01:58:01.726Z,101783.22
2023-03-16T01:59:07.422Z,101784.03
2023-03-16T02:00:16.692Z,101788.31
2023-03-16T02:01:23.511Z,101792.53
2023-03-16T02:02:28.726Z,101789.97
2023-03-16T02:03:34.423Z,101780.53
2023-03-16T02:05:15.083Z,101783.09
2023-03-16T02:06:18.837Z,101781.31
2023-03-16T02:07:27.588Z,101777.00
2023-03-16T02:08:31.997Z,101776.13
2023-03-16T02:09:35.437Z,101782.06
2023-03-16T02:10:37.508Z,101774.22
2023-03-16T02:11:39.346Z,101779.28
2023-03-16T02:12:45.891Z,101777.53
2023-03-16T02:13:47.782Z,101776.66
2023-03-16T02:14:50.164Z,101779.97
2023-03-16T02:15:52.371Z,101772.25
2023-03-16T02:16:56.750Z,101780.78
2023-03-16T02:18:00.658Z,101779.91
2023-03-16T02:19:06.176Z,101777.34
2023-03-16T02:20:24.897Z,101783.28
2023-03-16T02:21:33.439Z,101780.63
2023-03-16T02:22:37.570Z,101777.09
2023-03-16T02:23:39.065Z,101777.94
2023-03-16T02:24:41.458Z,101785.63
2023-03-16T02:25:47.629Z,101778.66
2023-03-16T02:26:53.490Z,101775.19
2023-03-16T02:28:02.274Z,101770.84
2023-03-16T02:29:19.164Z,101783.69
2023-03-16T02:30:30.166Z,101787.91
2023-03-16T02:31:36.924Z,101780.13
2023-03-16T02:32:47.075Z,101775.81
2023-03-16T02:33:53.438Z,101780.94
2023-03-16T02:34:56.559Z,101782.66
2023-03-16T02:35:59.098Z,101776.63
2023-03-16T02:37:06.294Z,101774.06
2023-03-16T02:38:11.008Z,101779.19
2023-03-16T02:39:19.134Z,101784.34
2023-03-16T02:40:23.077Z,101770.59
2023-03-16T02:41:26.928Z,101782.56
2023-03-16T02:42:32.765Z,101772.22
2023-03-16T02:43:36.141Z,101781.72
2023-03-16T02:44:56.019Z,101779.13
2023-03-16T02:46:06.987Z,101778.25
2023-03-16T02:47:16.433Z,101782.50
2023-03-16T02:48:29.508Z,101780.81
2023-03-16T02:49:38.272Z,101779.94
2023-03-16T02:50:42.860Z,101781.59
2023-03-16T02:51:45.804Z,101780.75
2023-03-16T02:52:49.713Z,101774.72
2023-03-16T02:53:52.598Z,101781.53
2023-03-16T02:54:57.336Z,101784.94
2023-03-16T02:55:58.844Z,101781.41
2023-03-16T02:57:00.781Z,101775.41
2023-03-16T02:58:03.166Z,101781.34
2023-03-16T02:59:04.712Z,101779.56
2023-03-16T03:00:19.022Z,101782.13
2023-03-16T03:01:23.963Z,101788.06
2023-03-16T03:02:25.482Z,101788.91
2023-03-16T03:03:29.235Z,101783.78
2023-03-16T03:04:32.957Z,101782.00
2023-03-16T03:05:34.450Z,101782.88
2023-03-16T03:06:35.954Z,101781.13
2023-03-16T03:07:40.468Z,101787.06
2023-03-16T03:08:43.344Z,101782.72
2023-03-16T03:09:46.286Z,101788.66
2023-03-16T03:10:50.525Z,101785.22
2023-03-16T03:11:52.207Z,101783.53
2023-03-16T03:12:53.647Z,101780.09
2023-03-16T03:13:56.268Z,101778.41
2023-03-16T03:15:00.543Z,101779.22
2023-03-16T03:16:08.114Z,101777.47
2023-03-16T03:17:13.396Z,101782.59
2023-03-16T03:18:14.895Z,101788.53
2023-03-16T03:19:16.431Z,101787.72
2023-03-16T03:20:18.336Z,101799.72
2023-03-16T03:21:19.885Z,101788.53
2023-03-16T03:22:23.516Z,101786.88
2023-03-16T03:23:25.366Z,101792.88
2023-03-16T03:24:28.129Z,101791.16
2023-03-16T03:25:29.694Z,101787.81
2023-03-16T03:26:33.671Z,101797.28
2023-03-16T03:27:36.104Z,101795.50
2023-03-16T03:28:42.747Z,101790.38
2023-03-16T03:29:50.302Z,101793.81
2023-03-16T03:30:51.759Z,101790.38
2023-03-16T03:31:53.323Z,101791.25
2023-03-16T03:32:55.174Z,101796.38
2023-03-16T03:33:56.974Z,101791.25
2023-03-16T03:34:58.599Z,101784.44
2023-03-16T03:36:02.052Z,101783.53
2023-03-16T03:37:08.644Z,101785.22
2023-03-16T03:38:11.597Z,101788.66
2023-03-16T03:39:14.705Z,101786.09
2023-03-16T03:40:17.204Z,101777.53
2023-03-16T03:41:22.505Z,101790.38
2023-03-16T03:42:26.810Z,101783.53
2023-03-16T03:43:29.733Z,101786.09
2023-03-16T03:44:34.521Z,101794.72
2023-03-16T03:45:36.310Z,101792.13
2023-03-16T03:46:37.888Z,101784.44
2023-03-16T03:47:39.953Z,101790.44
2023-03-16T03:48:42.849Z,101789.63
2023-03-16T03:49:44.495Z,101785.38
2023-03-16T03:50:46.144Z,101787.13
2023-03-16T03:52:10.533Z,101788.91
2023-03-16T03:53:12.120Z,101789.78
2023-03-16T03:54:33.511Z,101786.41
2023-03-16T03:55:39.936Z,101782.13
2023-03-16T03:56:41.302Z,101786.47
2023-03-16T03:57:47.261Z,101783.09
2023-03-16T03:58:48.956Z,101788.31
2023-03-16T04:00:07.926Z,101780.59
2023-03-16T04:01:15.006Z,101783.19
2023-03-16T04:02:16.517Z,101777.25
2023-03-16T04:03:26.467Z,101772.97
2023-03-16T04:04:27.989Z,101778.97
2023-03-16T04:05:29.442Z,101778.97
2023-03-16T04:06:34.350Z,101785.88
2023-03-16T04:07:35.844Z,101779.03
2023-03-16T04:08:41.168Z,101779.03
2023-03-16T04:09:45.160Z,101787.72
2023-03-16T04:10:56.481Z,101786.75
2023-03-16T04:12:00.564Z,101790.22
2023-03-16T04:13:01.976Z,101789.31
2023-03-16T04:14:08.907Z,101792.78
2023-03-16T04:15:13.459Z,101791.88
2023-03-16T04:16:28.088Z,101789.31
2023-03-16T04:17:34.284Z,101782.50
2023-03-16T04:18:45.148Z,101788.50
2023-03-16T04:19:47.595Z,101783.38
2023-03-16T04:20:53.198Z,101783.38
2023-03-16T04:21:57.216Z,101785.06
2023-03-16T04:23:00.769Z,101783.38
2023-03-16T04:24:05.147Z,101779.94
2023-03-16T04:25:11.528Z,101787.66
2023-03-16T04:26:14.083Z,101783.31
2023-03-16T04:27:22.859Z,101781.53
2023-03-16T04:28:26.288Z,101778.97
2023-03-16T04:29:28.485Z,101778.16
2023-03-16T04:30:35.033Z,101776.41
2023-03-16T04:31:53.767Z,101779.03
2023-03-16T04:32:56.299Z,101778.16
2023-03-16T04:33:58.524Z,101776.47
2023-03-16T04:35:01.495Z,101779.13
2023-03-16T04:36:16.106Z,101780.81
2023-03-16T04:37:18.286Z,101780.00
2023-03-16T04:38:19.777Z,101780.06
2023-03-16T04:39:33.774Z,101783.44
2023-03-16T04:40:35.281Z,101780.94
2023-03-16T04:41:46.537Z,101781.78
2023-03-16T04:42:53.668Z,101781.00
2023-03-16T04:43:57.669Z,101778.38
2023-03-16T04:44:59.802Z,101781.91
2023-03-16T04:46:02.590Z,101777.56
2023-03-16T04:47:07.449Z,101777.69
2023-03-16T04:48:15.827Z,101777.69
2023-03-16T04:49:19.629Z,101777.78
2023-03-16T04:50:21.215Z,101776.09
2023-03-16T04:51:26.922Z,101780.44
2023-03-16T04:52:42.115Z,101779.59
2023-03-16T04:53:46.020Z,101777.03
2023-03-16T04:54:57.408Z,101775.44
2023-03-16T04:55:59.882Z,101773.72
2023-03-16T04:57:03.680Z,101771.97
2023-03-16T04:58:14.018Z,101770.28
2023-03-16T04:59:15.642Z,101767.72
2023-03-16T05:00:25.899Z,101767.72
2023-03-16T05:01:34.993Z,101770.28
2023-03-16T05:02:38.443Z,101770.28
2023-03-16T05:03:43.555Z,101777.16
2023-03-16T05:04:45.021Z,101769.56
2023-03-16T05:05:47.567Z,101768.72
2023-03-16T05:06:50.433Z,101773.88
2023-03-16T05:07:55.737Z,101768.78
2023-03-16T05:08:59.018Z,101772.25
2023-03-16T05:10:00.512Z,101762.84
2023-03-16T05:11:01.944Z,101765.47
2023-03-16T05:12:07.758Z,101768.94
2023-03-16T05:13:10.058Z,101773.25
2023-03-16T05:14:12.278Z,101765.47
2023-03-16T05:15:32.276Z,101767.25
2023-03-16T05:16:52.226Z,101760.41
2023-03-16T05:17:57.889Z,101757.84
2023-03-16T05:19:00.895Z,101766.44
2023-03-16T05:20:13.269Z,101766.44
2023-03-16T05:21:20.080Z,101772.53
2023-03-16T05:22:31.442Z,101772.53
2023-03-16T05:23:47.977Z,101769.94
2023-03-16T05:24:49.465Z,101772.59
2023-03-16T05:25:51.342Z,101770.00
2023-03-16T05:26:55.363Z,101764.06
2023-03-16T05:27:58.460Z,101769.22
2023-03-16T05:29:08.540Z,101766.63
2023-03-16T05:30:12.847Z,101768.41
2023-03-16T05:31:14.459Z,101764.13
2023-03-16T05:32:21.806Z,101765.03
2023-03-16T05:33:23.485Z,101759.91
2023-03-16T05:34:31.593Z,101761.63
2023-03-16T05:35:33.180Z,101759.97
2023-03-16T05:36:39.263Z,101765.97
2023-03-16T05:37:46.252Z,101760.81
2023-03-16T05:38:51.163Z,101764.25
2023-03-16T05:40:01.553Z,101769.41
2023-03-16T05:41:05.901Z,101768.59
2023-03-16T05:42:19.940Z,101770.38
2023-03-16T05:43:30.392Z,101768.66
2023-03-16T05:44:33.473Z,101765.22
2023-03-16T05:45:56.005Z,101773.00
2023-03-16T05:46:57.467Z,101770.44
2023-03-16T05:47:59.086Z,101783.34
2023-03-16T05:49:03.654Z,101785.13
2023-03-16T05:50:05.963Z,101785.13
2023-03-16T05:51:13.955Z,101781.75
2023-03-16T05:52:16.480Z,101795.47
2023-03-16T05:53:19.239Z,101791.19
2023-03-16T05:54:20.736Z,101789.53
2023-03-16T05:55:23.537Z,101789.53
2023-03-16T05:56:30.837Z,101791.25
2023-03-16T05:57:34.282Z,101793.81
2023-03-16T05:58:35.750Z,101791.25
2023-03-16T05:59:41.124Z,101789.59
2023-03-16T06:00:46.766Z,101794.78
2023-03-16T06:02:00.057Z,101801.69
2023-03-16T06:03:01.668Z,101797.44
2023-03-16T06:04:13.642Z,101798.28
2023-03-16T06:05:28.409Z,101796.69
2023-03-16T06:06:30.139Z,101797.56
2023-03-16T06:07:41.737Z,101793.38
2023-03-16T06:08:44.603Z,101796.94
2023-03-16T06:09:47.134Z,101803.13
2023-03-16T06:10:50.886Z,101798.91
2023-03-16T06:11:53.444Z,101800.72
2023-03-16T06:12:55.285Z,101796.56
2023-03-16T06:13:59.590Z,101794.06
2023-03-16T06:15:01.479Z,101798.50
2023-03-16T06:16:06.358Z,101793.44
2023-03-16T06:17:09.723Z,101790.13
2023-03-16T06:18:11.648Z,101787.69
2023-03-16T06:19:13.531Z,101792.06
2023-03-16T06:20:15.055Z,101792.19
2023-03-16T06:21:18.506Z,101791.47
2023-03-16T06:22:24.977Z,101793.34
2023-03-16T06:23:26.535Z,101793.53
2023-03-16T06:24:30.981Z,101801.38
2023-03-16T06:25:32.838Z,101795.53
2023-03-16T06:26:35.362Z,101799.03
2023-03-16T06:27:38.657Z,101796.56
2023-03-16T06:28:47.828Z,101798.41
2023-03-16T06:29:49.257Z,101798.56
2023-03-16T06:30:53.361Z,101798.63
2023-03-16T06:31:58.991Z,101800.53
2023-03-16T06:33:01.721Z,101793.81
2023-03-16T06:34:03.351Z,101794.81
2023-03-16T06:35:05.739Z,101798.28
2023-03-16T06:36:08.673Z,101807.06
2023-03-16T06:37:16.882Z,101802.84
2023-03-16T06:38:19.207Z,101803.84
2023-03-16T06:39:30.977Z,101801.41
2023-03-16T06:40:33.119Z,101806.63
2023-03-16T06:41:35.722Z,101818.81
2023-03-16T06:42:37.236Z,101812.81
2023-03-16T06:43:39.282Z,101806.94
2023-03-16T06:44:43.113Z,101812.13
2023-03-16T06:45:47.839Z,101812.19
2023-03-16T06:46:49.400Z,101816.59
2023-03-16T06:47:51.325Z,101812.47
2023-03-16T06:48:52.862Z,101817.72
2023-03-16T06:49:55.272Z,101817.84
2023-03-16T06:50:59.128Z,101812.81
2023-03-16T06:52:04.084Z,101812.03
2023-03-16T06:53:06.302Z,101807.84
2023-03-16T06:54:09.252Z,101807.97
2023-03-16T06:55:14.461Z,101814.19
2023-03-16T06:56:19.729Z,101811.66
2023-03-16T06:57:21.965Z,101813.56
2023-03-16T06:58:25.025Z,101810.28
2023-03-16T06:59:26.509Z,101809.53
2023-03-16T07:00:31.580Z,101809.69
2023-03-16T07:01:33.472Z,101806.41
2023-03-16T07:02:39.424Z,101809.97
2023-03-16T07:03:42.379Z,101811.84
2023-03-16T07:04:54.783Z,101807.69
2023-03-16T07:05:56.229Z,101801.84
2023-03-16T07:06:57.736Z,101809.69
2023-03-16T07:07:59.165Z,101803.81
2023-03-16T07:09:01.471Z,101808.22
2023-03-16T07:10:05.437Z,101805.75
2023-03-16T07:11:07.494Z,101808.44
2023-03-16T07:12:10.196Z,101802.56
2023-03-16T07:13:12.522Z,101801.81
2023-03-16T07:14:14.112Z,101798.47
2023-03-16T07:15:16.083Z,101802.84
2023-03-16T07:16:17.719Z,101802.97
2023-03-16T07:17:19.205Z,101803.06
2023-03-16T07:18:22.947Z,101803.16
2023-03-16T07:19:24.921Z,101809.22
2023-03-16T07:20:31.348Z,101807.63
2023-03-16T07:21:39.903Z,101813.72
2023-03-16T07:22:45.379Z,101816.41
2023-03-16T07:23:48.488Z,101807.84
2023-03-16T07:24:57.290Z,101816.56
2023-03-16T07:26:00.728Z,101820.09
2023-03-16T07:27:02.414Z,101818.44
2023-03-16T07:28:06.349Z,101817.66
2023-03-16T07:29:14.333Z,101828.09
2023-03-16T07:30:15.846Z,101818.72
2023-03-16T07:31:22.446Z,101827.38
2023-03-16T07:32:24.332Z,101826.63
2023-03-16T07:33:25.796Z,101828.38
2023-03-16T07:34:27.774Z,101831.00
2023-03-16T07:35:35.433Z,101832.00
2023-03-16T07:36:37.440Z,101831.25
2023-03-16T07:37:39.560Z,101832.97
2023-03-16T07:38:42.946Z,101831.34
2023-03-16T07:39:51.463Z,101826.22
2023-03-16T07:40:54.613Z,101827.16
2023-03-16T07:41:57.616Z,101830.69
2023-03-16T07:43:25.078Z,101832.53
2023-03-16T07:44:31.185Z,101836.03
2023-03-16T07:45:35.938Z,101830.97
2023-03-16T07:46:38.518Z,101837.03
2023-03-16T07:47:40.421Z,101839.72
2023-03-16T07:48:49.539Z,101832.91
2023-03-16T07:49:51.603Z,101836.41
2023-03-16T07:50:54.222Z,101839.09
2023-03-16T07:51:56.800Z,101836.59
2023-03-16T07:53:05.185Z,101832.38
2023-03-16T07:54:08.758Z,101844.59
2023-03-16T07:55:11.759Z,101841.22
2023-03-16T07:56:13.199Z,101837.88
2023-03-16T07:57:18.434Z,101836.25
2023-03-16T07:58:22.070Z,101839.81
2023-03-16T07:59:24.815Z,101835.63
2023-03-16T08:00:26.313Z,101834.03
2023-03-16T08:01:27.956Z,101828.97
2023-03-16T08:02:29.661Z,101833.41
2023-03-16T08:03:31.960Z,101828.38
2023-03-16T08:04:33.783Z,101822.44
2023-03-16T08:05:36.722Z,101832.00
2023-03-16T08:06:43.546Z,101831.25
2023-03-16T08:07:45.085Z,101828.81
2023-03-16T08:08:51.146Z,101825.44
2023-03-16T08:10:02.748Z,101829.88
2023-03-16T08:11:15.020Z,101826.56
2023-03-16T08:12:23.933Z,101824.13
2023-03-16T08:13:27.286Z,101823.34
2023-03-16T08:14:29.602Z,101826.91
2023-03-16T08:15:58.362Z,101827.84
2023-03-16T08:17:12.700Z,101816.78
2023-03-16T08:18:14.679Z,101818.63
2023-03-16T08:19:17.449Z,101820.47
2023-03-16T08:20:19.115Z,101818.88
2023-03-16T08:21:23.079Z,101819.91
2023-03-16T08:22:25.592Z,101821.75
2023-03-16T08:23:30.637Z,101815.78
2023-03-16T08:24:32.860Z,101817.72
2023-03-16T08:25:35.047Z,101819.59
2023-03-16T08:26:42.632Z,101824.91
2023-03-16T08:27:48.518Z,101809.50
2023-03-16T08:28:51.864Z,101812.28
2023-03-16T08:29:53.546Z,101823.59
2023-03-16T08:30:58.514Z,101816.84
2023-03-16T08:32:14.490Z,101821.31
2023-03-16T08:33:22.972Z,101814.63
2023-03-16T08:34:26.759Z,101812.13
2023-03-16T08:35:29.222Z,101813.16
2023-03-16T08:36:32.687Z,101808.09
2023-03-16T08:37:35.603Z,101813.44
2023-03-16T08:38:38.573Z,101810.13
2023-03-16T08:39:43.672Z,101806.81
2023-03-16T08:40:50.581Z,101814.69
2023-03-16T08:41:54.028Z,101815.72
2023-03-16T08:43:05.265Z,101817.59
2023-03-16T08:44:07.973Z,101809.91
2023-03-16T08:45:12.351Z,101817.75
2023-03-16T08:46:17.285Z,101805.78
2023-03-16T08:47:27.215Z,101817.16
2023-03-16T08:48:29.330Z,101816.41
2023-03-16T08:49:30.757Z,101809.56
2023-03-16T08:50:41.220Z,101813.94
2023-03-16T08:51:44.798Z,101818.28
2023-03-16T08:52:48.965Z,101817.50
2023-03-16T08:53:50.849Z,101826.16
2023-03-16T08:55:02.467Z,101820.19
2023-03-16T08:56:06.150Z,101814.19
2023-03-16T08:57:10.446Z,101820.28
2023-03-16T08:58:12.455Z,101816.06
2023-03-16T08:59:23.519Z,101821.31
2023-03-16T09:00:29.586Z,101815.34
2023-03-16T09:01:31.987Z,101815.41
2023-03-16T09:02:33.582Z,101810.34
2023-03-16T09:03:38.560Z,101808.66
2023-03-16T09:04:47.312Z,101813.94
2023-03-16T09:05:49.547Z,101809.75
2023-03-16T09:07:09.858Z,101808.94
2023-03-16T09:08:12.693Z,101810.78
2023-03-16T09:09:14.338Z,101805.66
2023-03-16T09:10:16.348Z,101818.72
2023-03-16T09:11:19.053Z,101808.41
2023-03-16T09:12:22.383Z,101808.50
2023-03-16T09:13:24.500Z,101807.66
2023-03-16T09:14:27.961Z,101812.94
2023-03-16T09:15:29.730Z,101810.41
2023-03-16T09:16:31.907Z,101807.03
2023-03-16T09:17:36.317Z,101805.34
2023-03-16T09:18:38.200Z,101802.00
2023-03-16T09:19:51.026Z,101806.38
2023-03-16T09:20:59.973Z,101809.94
2023-03-16T09:22:01.533Z,101803.97
2023-03-16T09:23:03.647Z,101807.53
2023-03-16T09:24:05.235Z,101805.91
2023-03-16T09:25:07.316Z,101807.75
2023-03-16T09:26:09.483Z,101810.44
2023-03-16T09:27:11.070Z,101807.97
2023-03-16T09:28:12.642Z,101808.91
2023-03-16T09:29:14.800Z,101802.94
2023-03-16T09:30:16.945Z,101804.75
2023-03-16T09:31:19.844Z,101803.97
2023-03-16T09:32:21.666Z,101795.41
2023-03-16T09:33:26.861Z,101807.59
2023-03-16T09:34:29.947Z,101798.16
2023-03-16T09:35:35.297Z,101802.56
2023-03-16T09:36:38.077Z,101796.59
2023-03-16T09:37:45.317Z,101794.03
2023-03-16T09:38:56.002Z,101795.00
2023-03-16T09:40:06.625Z,101801.09
2023-03-16T09:41:28.743Z,101798.59
2023-03-16T09:42:36.481Z,101784.81
2023-03-16T09:43:54.356Z,101791.81
2023-03-16T09:45:14.956Z,101789.28
2023-03-16T09:46:16.530Z,101783.28
2023-03-16T09:47:23.978Z,101784.19
2023-03-16T09:48:27.426Z,101777.34
2023-03-16T09:49:33.344Z,101778.25
2023-03-16T09:50:48.451Z,101775.72
2023-03-16T09:51:59.013Z,101769.72
2023-03-16T09:53:19.179Z,101765.47
2023-03-16T09:54:39.146Z,101764.69
2023-03-16T09:55:43.125Z,101764.78
2023-03-16T09:56:45.144Z,101766.56
2023-03-16T09:57:50.304Z,101762.31
2023-03-16T09:58:51.708Z,101762.38
2023-03-16T09:59:58.988Z,101758.13
2023-03-16T10:01:00.720Z,101762.59
2023-03-16T10:02:14.433Z,101759.19
2023-03-16T10:03:31.071Z,101755.78
2023-03-16T10:04:35.312Z,101763.66
2023-03-16T10:05:38.675Z,101749.81
2023-03-16T10:06:48.422Z,101757.72
2023-03-16T10:08:01.557Z,101756.00
2023-03-16T10:09:14.061Z,101750.88
2023-03-16T10:10:22.361Z,101753.50
2023-03-16T10:11:32.962Z,101750.09
2023-03-16T10:12:38.247Z,101752.75
2023-03-16T10:13:49.013Z,101752.81
2023-03-16T10:15:06.033Z,101755.44
2023-03-16T10:16:33.658Z,101751.16
2023-03-16T10:17:44.284Z,101743.38
2023-03-16T10:18:53.466Z,101755.59
2023-03-16T10:20:00.635Z,101756.50
2023-03-16T10:21:02.980Z,101752.19
2023-03-16T10:22:13.382Z,101752.19
2023-03-16T10:23:20.708Z,101756.56
2023-03-16T10:24:41.566Z,101750.53
2023-03-16T10:25:46.412Z,101751.44
2023-03-16T10:26:51.128Z,101746.25
2023-03-16T10:27:52.999Z,101747.16
2023-03-16T10:28:54.940Z,101734.13
2023-03-16T10:29:56.940Z,101749.75
2023-03-16T10:30:59.615Z,101738.47
2023-03-16T10:32:03.615Z,101735.88
2023-03-16T10:33:19.634Z,101739.34
2023-03-16T10:34:21.389Z,101741.97
2023-03-16T10:35:25.482Z,101740.28
2023-03-16T10:36:31.996Z,101735.06
2023-03-16T10:37:38.407Z,101738.53
2023-03-16T10:38:40.133Z,101729.84
2023-03-16T10:39:45.435Z,101733.34
2023-03-16T10:40:49.781Z,101737.69
2023-03-16T10:41:56.075Z,101729.03
2023-03-16T10:42:57.616Z,101741.22
2023-03-16T10:44:06.294Z,101733.41
2023-03-16T10:45:33.829Z,101731.69
2023-03-16T10:46:39.372Z,101735.16
2023-03-16T10:47:40.903Z,101730.00
2023-03-16T10:48:43.252Z,101731.72
2023-03-16T10:49:48.995Z,101730.00
2023-03-16T10:50:52.152Z,101730.88
2023-03-16T10:52:00.449Z,101726.56
2023-03-16T10:53:02.807Z,101730.03
2023-03-16T10:54:10.971Z,101731.78
2023-03-16T10:55:17.166Z,101727.47
2023-03-16T10:56:20.882Z,101730.09
2023-03-16T10:57:32.498Z,101726.63
2023-03-16T10:58:35.644Z,101727.47
2023-03-16T10:59:41.271Z,101726.63
2023-03-16T11:00:43.427Z,101726.63
2023-03-16T11:01:48.848Z,101723.16
2023-03-16T11:02:51.855Z,101726.69
2023-03-16T11:03:55.563Z,101718.84
2023-03-16T11:04:57.579Z,101724.09
2023-03-16T11:05:59.108Z,101721.47
2023-03-16T11:07:03.366Z,101713.69
2023-03-16T11:08:07.721Z,101722.38
2023-03-16T11:09:21.922Z,101722.38
2023-03-16T11:10:32.340Z,101713.69
2023-03-16T11:11:34.973Z,101713.69
2023-03-16T11:12:36.648Z,101718.91
2023-03-16T11:13:38.966Z,101720.63
2023-03-16T11:14:43.723Z,101704.94
2023-03-16T11:15:51.071Z,101711.94
2023-03-16T11:16:52.512Z,101715.41
2023-03-16T11:17:57.240Z,101710.19
2023-03-16T11:19:00.542Z,101708.47
2023-03-16T11:20:12.414Z,101708.47
2023-03-16T11:21:19.794Z,101705.00
2023-03-16T11:22:23.731Z,101703.25
2023-03-16T11:23:29.387Z,101705.84
2023-03-16T11:24:38.499Z,101702.38
2023-03-16T11:25:45.531Z,101710.22
2023-03-16T11:26:57.181Z,101699.75
2023-03-16T11:28:04.205Z,101693.69
2023-03-16T11:29:11.084Z,101691.06
2023-03-16T11:30:15.365Z,101691.06
2023-03-16T11:31:39.365Z,101688.47
2023-03-16T11:32:43.789Z,101682.34
2023-03-16T11:33:45.270Z,101674.50
2023-03-16T11:34:48.704Z,101675.41
2023-03-16T11:35:59.484Z,101673.66
2023-03-16T11:37:04.024Z,101681.50
2023-03-16T11:38:22.104Z,101678.00
2023-03-16T11:39:26.454Z,101679.72
2023-03-16T11:40:36.435Z,101678.88
2023-03-16T11:41:38.187Z,101680.63
2023-03-16T11:43:00.154Z,101679.75
2023-03-16T11:44:06.895Z,101680.63
2023-03-16T11:45:27.425Z,101677.16
2023-03-16T11:46:31.564Z,101685.03
2023-03-16T11:47:51.375Z,101681.50
2023-03-16T11:49:00.267Z,101676.28
2023-03-16T11:50:11.310Z,101677.19
2023-03-16T11:51:26.869Z,101683.25
2023-03-16T11:52:37.035Z,101678.94
2023-03-16T11:53:49.403Z,101673.69
2023-03-16T11:55:27.460Z,101675.44
2023-03-16T11:56:33.782Z,101671.97
2023-03-16T11:57:35.760Z,101667.63
2023-03-16T11:58:46.234Z,101658.00
2023-03-16T12:00:09.452Z,101663.28
2023-03-16T12:01:30.703Z,101652.81
2023-03-16T12:02:36.116Z,101650.19
2023-03-16T12:03:53.783Z,101646.69
2023-03-16T12:05:19.933Z,101649.31
2023-03-16T12:06:23.530Z,101642.34
2023-03-16T12:07:43.731Z,101643.19
2023-03-16T12:08:45.177Z,101633.63
2023-03-16T12:09:55.849Z,101636.25
2023-03-16T12:11:02.820Z,101626.63
2023-03-16T12:12:11.087Z,101630.13
2023-03-16T12:13:12.648Z,101625.78
2023-03-16T12:14:34.496Z,101622.25
2023-03-16T12:15:48.369Z,101614.41
2023-03-16T12:17:03.001Z,101617.88
2023-03-16T12:18:10.613Z,101619.59
2023-03-16T12:19:16.666Z,101621.34
2023-03-16T12:20:32.087Z,101607.41
2023-03-16T12:21:36.481Z,101612.66
2023-03-16T12:22:42.169Z,101610.03
2023-03-16T12:23:55.318Z,101616.97
2023-03-16T12:24:56.766Z,101610.88
2023-03-16T12:26:01.591Z,101617.84
2023-03-16T12:27:03.105Z,101610.88
2023-03-16T12:28:07.671Z,101609.16